Home > Products > Valid Products > TAF

000
FTUS43 KLSX 230700 AAA
TAFUIN
TAF AMD
KUIN 230722Z 2307/2406 19012KT P6SM SCT015 BKN120
     FM231200 17012KT 5SM -SHRA SCT009 OVC015
     FM231600 15012KT 3SM -RA OVC007
     FM240400 29012G22KT P6SM SCT007 OVC012=



000
FTUS43 KLSX 230600 AAA
TAFSTL
TAF AMD
KSTL 230638Z 2307/2412 17012KT P6SM SCT015 BKN100
     FM230800 17010KT P6SM OVC025
     FM231700 15010KT 3SM -RA OVC007
     FM240800 28012G20KT P6SM SCT007 OVC012=



000
FTUS43 KLSX 230600 AAA
TAFSUS
TAF AMD
KSUS 230638Z 2307/2406 18010KT P6SM SCT015 BKN090
     FM230800 17010KT P6SM OVC025
     FM231700 15010KT 3SM -RA OVC007=



000
FTUS43 KLSX 230600 AAA
TAFCOU
TAF AMD
KCOU 230633Z 2307/2406 17012KT P6SM SCT015 BKN100
     FM231200 17010KT 5SM -SHRA SCT009 OVC015
     FM231600 15012KT 3SM -RA OVC007
     FM240300 29012G18KT P6SM SCT007 OVC012=



000
FTUS43 KLSX 230500
TAFUIN
TAF
KUIN 230529Z 2306/2406 20012G20KT P6SM OVC015
     FM231200 17012KT 5SM -SHRA SCT009 OVC015
     FM231600 15012KT 3SM -RA OVC007
     FM240400 29012G22KT P6SM SCT007 OVC012=



000
FTUS43 KLSX 230500
TAFSTL
TAF
KSTL 230529Z 2306/2412 17012KT P6SM VCSH OVC025
     FM230800 17010KT P6SM OVC025
     FM231700 15010KT 3SM -RA OVC007
     FM240800 28012G20KT P6SM SCT007 OVC012=



000
FTUS43 KLSX 230500
TAFCOU
TAF
KCOU 230529Z 2306/2406 18012KT P6SM OVC015
     FM231200 17010KT 5SM -SHRA SCT009 OVC015
     FM231600 15012KT 3SM -RA OVC007
     FM240300 29012G18KT P6SM SCT007 OVC012=



000
FTUS43 KLSX 230500
TAFSUS
TAF
KSUS 230529Z 2306/2406 17010KT P6SM VCSH OVC025
     FM230800 17010KT P6SM OVC025
     FM231700 15010KT 3SM -RA OVC007=



000
FTUS43 KLSX 230300 AAB
TAFCOU
TAF AMD
KCOU 230316Z 2303/2324 18012KT P6SM OVC015
     FM231000 17010KT 5SM -SHRA SCT009 OVC015
     FM231400 15012KT 3SM -RA OVC007=



000
FTUS43 KLSX 230300 AAA
TAFUIN
TAF AMD
KUIN 230315Z 2303/2324 20012G20KT P6SM OVC020
     FM231000 17012KT 5SM -SHRA SCT009 OVC015
     FM231400 15012KT 3SM -RA OVC007=



000
FTUS43 KLSX 230300 AAA
TAFSTL
TAF AMD
KSTL 230301Z 2303/2406 18012G20KT P6SM VCSH OVC025
      TEMPO 2303/2305 6SM -RA OVC015
     FM230900 18010KT 5SM -SHRA SCT009 OVC015
     FM231500 15010KT 3SM -RA OVC007
     FM240300 19008KT 6SM BR OVC007=



000
FTUS43 KLSX 230200 AAA
TAFSUS
TAF AMD
KSUS 230218Z 2302/2324 17012KT P6SM VCSH OVC025
      TEMPO 2302/2304 5SM -SHRA OVC015
     FM230900 18010KT 5SM -SHRA SCT009 OVC015
     FM231500 15010KT 3SM -RA OVC007=



000
FTUS43 KLSX 230000 AAA
TAFCOU
TAF AMD
KCOU 230049Z 2301/2324 19012KT P6SM OVC015
     FM230600 17010KT 5SM -SHRA SCT009 OVC015
     FM231000 15012KT 3SM -RA OVC007=



000
FTUS43 KLSX 222300
TAFSUS
TAF
KSUS 222321Z 2300/2324 17012KT P6SM VCSH OVC025
      TEMPO 2300/2302 3SM -SHRA OVC015
     FM230900 18010KT 5SM -SHRA SCT009 OVC015
     FM231500 15010KT 3SM -RA OVC007=



000
FTUS43 KLSX 222300
TAFSTL
TAF
KSTL 222321Z 2300/2406 18012G20KT P6SM VCSH OVC025
      TEMPO 2300/2302 3SM -SHRA OVC015
     FM230900 18010KT 5SM -SHRA SCT009 OVC015
     FM231500 15010KT 3SM -RA OVC007
     FM240300 19008KT 6SM BR OVC007=



000
FTUS43 KLSX 222300
TAFCOU
TAF
KCOU 222321Z 2300/2324 19012KT P6SM OVC020
     FM230200 18012KT P6SM VCSH OVC015
     FM230600 17010KT 5SM -SHRA SCT009 OVC015
     FM231000 15012KT 3SM -RA OVC007=



000
FTUS43 KLSX 222300
TAFUIN
TAF
KUIN 222321Z 2300/2324 20012G20KT P6SM OVC020
     FM230600 17012KT 5SM -SHRA SCT009 OVC015
     FM231200 15012KT 3SM -RA OVC007=



000
FTUS43 KLSX 222100 AAA
TAFSUS
TAF AMD
KSUS 222115Z 2221/2318 21010KT P6SM VCSH SCT020 OVC035
     FM222230 19012KT P6SM VCSH OVC025
      TEMPO 2223/2302 5SM -SHRA OVC015
     FM230900 18010KT 5SM -SHRA SCT009 OVC015
     FM231500 15010KT 3SM -RA OVC007=



000
FTUS43 KLSX 222100 AAA
TAFSTL
TAF AMD
KSTL 222113Z 2221/2324 19014G22KT P6SM VCSH OVC035
     FM222300 19012G20KT P6SM VCSH OVC025
      TEMPO 2223/2302 3SM -SHRA OVC015
     FM230900 18010KT 5SM -SHRA SCT009 OVC015
     FM231500 15010KT 3SM -RA OVC007=



000
FTUS43 KLSX 221900 CCA
TAFCOU
TAF COR
KCOU 221921Z 2219/2318 20012G20KT P6SM OVC020
     FM230200 18012KT P6SM VCSH OVC015
     FM230600 17010KT 5SM -SHRA SCT009 OVC015
     FM231000 15012KT 3SM -RA OVC007=



000
FTUS43 KLSX 221900 AAA
TAFCOU
TAF AMD
KCOU 221921Z 2219/2318 20010KT P6SM OVC020
     FM230200 18012KT P6SM VCSH OVC015
     FM230600 17010KT 5SM -SHRA SCT009 OVC015
     FM231000 15012KT 3SM -RA OVC007=



000
FTUS43 KLSX 221900 AAA
TAFUIN
TAF AMD
KUIN 221919Z 2219/2318 21012G20KT P6SM OVC020
     FM230600 17012KT 5SM -SHRA SCT009 OVC015
     FM231200 15012KT 3SM -RA OVC007=



000
FTUS43 KLSX 221700
TAFSTL
TAF
KSTL 221738Z 2218/2324 20012KT P6SM BKN030 OVC070
     FM222100 19010KT P6SM VCSH OVC025
      TEMPO 2223/2302 5SM -SHRA OVC015
     FM230900 18010KT 5SM -SHRA SCT009 OVC015
     FM231500 15010KT 3SM -RA OVC007=



000
FTUS43 KLSX 221700
TAFCOU
TAF
KCOU 221738Z 2218/2318 20010KT P6SM OVC018
     FM230200 18012KT P6SM VCSH OVC015
     FM230600 17010KT 5SM -SHRA SCT009 OVC015
     FM231000 15012KT 3SM -RA OVC007=



000
FTUS43 KLSX 221700
TAFUIN
TAF
KUIN 221738Z 2218/2318 21012G20KT P6SM OVC018
     FM230600 17012KT 5SM -SHRA SCT009 OVC015
     FM231200 15012KT 3SM -RA OVC007=



000
FTUS43 KLSX 221700
TAFSUS
TAF
KSUS 221738Z 2218/2318 19012KT P6SM VCSH OVC025
      TEMPO 2223/2302 5SM -SHRA OVC015
     FM230900 18010KT 5SM -SHRA SCT009 OVC015
     FM231500 15010KT 3SM -RA OVC007=



000
FTUS43 KLSX 221600 AAB
TAFUIN
TAF AMD
KUIN 221616Z 2216/2312 20009KT P6SM OVC018
     FM230600 17010KT 5SM -SHRA SCT009 OVC025=



000
FTUS43 KLSX 221500 AAA
TAFSUS
TAF AMD
KSUS 221505Z 2215/2312 19010KT P6SM SCT025 OVC050
     FM222100 19012KT P6SM VCSH OVC035
     FM230900 18010KT 5SM -SHRA SCT009 OVC025=



000
FTUS43 KLSX 221500 AAA
TAFSTL
TAF AMD
KSTL 221503Z 2215/2318 19010KT P6SM SCT025 OVC050
     FM222100 19010KT P6SM VCSH OVC035
     FM230900 18010KT 5SM -SHRA SCT009 OVC025=



000
FTUS43 KLSX 221400 AAA
TAFCOU
TAF AMD
KCOU 221448Z 2215/2312 19012KT P6SM OVC018
     FM221800 20010KT P6SM OVC025
     FM230200 18012KT P6SM VCSH OVC015
     FM230600 17010KT 5SM -SHRA SCT009 OVC025=



000
FTUS43 KLSX 221300 AAA
TAFUIN
TAF AMD
KUIN 221344Z 2214/2312 18010KT P6SM SCT019 OVC050
     FM221600 20009KT P6SM OVC020
     FM230600 17010KT 5SM -SHRA SCT009 OVC025=



000
FTUS43 KLSX 221100
TAFUIN
TAF
KUIN 221126Z 2212/2312 18010KT P6SM OVC015 WS015/21045KT
     FM221400 20009KT P6SM OVC020
     FM230600 17010KT 5SM -SHRA SCT009 OVC025=



000
FTUS43 KLSX 221100
TAFCOU
TAF
KCOU 221126Z 2212/2312 18013KT P6SM SCT025 OVC050 WS020/21045KT
     FM221400 19012KT P6SM SCT025 OVC035
     FM230200 18012KT P6SM VCSH OVC015
     FM230600 17010KT 5SM -SHRA SCT009 OVC025=



000
FTUS43 KLSX 221100
TAFSTL
TAF
KSTL 221126Z 2212/2318 18005KT P6SM SCT015 BKN050 WS020/21050KT
     FM221400 19012KT P6SM SCT025 OVC035
     FM230900 18010KT 5SM -SHRA SCT009 OVC025=



000
FTUS43 KLSX 221100
TAFSUS
TAF
KSUS 221126Z 2212/2312 19004KT P6SM SCT015 BKN050 WS020/21050KT
     FM221400 19010KT P6SM SCT025 OVC035
     FM230900 18010KT 5SM -SHRA SCT009 OVC025=



000
FTUS43 KLSX 220900 AAA
TAFCOU
TAF AMD
KCOU 220953Z 2210/2306 16013KT P6SM SCT012 OVC025 WS020/21045KT
     FM221400 19012KT P6SM SCT015 OVC025
     FM230200 18012KT P6SM VCSH OVC015=



000
FTUS43 KLSX 220900 AAB
TAFSTL
TAF AMD
KSTL 220902Z 2209/2312 18005KT P6SM SCT015 BKN050 WS020/21050KT
      TEMPO 2210/2214 BKN015
     FM221400 19012KT P6SM SCT025 OVC035
     FM230900 18010KT 5SM -SHRA OVC025=



000
FTUS43 KLSX 220700 AAA
TAFSUS
TAF AMD
KSUS 220717Z 2207/2306 19004KT P6SM SCT015 BKN050 WS020/21050KT
      TEMPO 2210/2214 BKN015
     FM221400 19010KT P6SM SCT025 OVC035
     FM230500 18008KT P6SM OVC020=



000
FTUS43 KLSX 220700 AAA
TAFSTL
TAF AMD
KSTL 220716Z 2207/2312 18010KT P6SM SCT015 BKN050 WS020/21050KT
      TEMPO 2210/2214 BKN015
     FM221400 19012KT P6SM SCT025 OVC035
     FM230900 18010KT 5SM -SHRA OVC025=



000
FTUS43 KLSX 220500
TAFSTL
TAF
KSTL 220534Z 2206/2312 18010KT P6SM OVC020 WS020/21050KT
     FM221400 19012KT P6SM SCT025 OVC035
     FM230900 18010KT 5SM -SHRA OVC025=



000
FTUS43 KLSX 220500
TAFSUS
TAF
KSUS 220534Z 2206/2306 19010KT P6SM OVC015 WS020/21050KT
     FM221400 19010KT P6SM SCT025 OVC035
     FM230500 18008KT P6SM OVC020=



000
FTUS43 KLSX 220500
TAFCOU
TAF
KCOU 220534Z 2206/2306 16013KT P6SM OVC012 WS020/21045KT
     FM221400 19012KT P6SM SCT015 OVC025
     FM230200 18012KT P6SM VCSH OVC015=



000
FTUS43 KLSX 220500
TAFUIN
TAF
KUIN 220534Z 2206/2306 17011KT P6SM OVC015
     FM220700 18010KT P6SM OVC015 WS020/21045KT
     FM221400 20009KT P6SM OVC020=



000
FTUS43 KLSX 220400 AAA
TAFUIN
TAF AMD
KUIN 220403Z 2204/2224 17011KT P6SM OVC015
     FM220700 18010KT P6SM OVC015 WS020/21045KT
     FM221400 20009KT P6SM OVC020=



000
FTUS43 KLSX 220400 AAA
TAFUIN
TAF AMD
KUIN 220403Z 2204/2224 17011KT P6SM OVC015
     FM220700 18010KT P6SM OVC015 WS020/21045KT
     FM221400 20009KT P6SM OVC020=



000
FTUS43 KLSX 220300 AAA
TAFCOU
TAF AMD
KCOU 220312Z 2203/2224 14010KT P6SM OVC015
     FM220400 16010KT P6SM OVC015 WS020/21045KT
     FM221400 18012KT P6SM VCSH SCT015 OVC025
     FM221900 19012KT P6SM OVC025=



000
FTUS43 KLSX 220200 AAA
TAFSTL
TAF AMD
KSTL 220257Z 2203/2306 16008KT P6SM VCSH OVC025
     FM220500 18010KT P6SM OVC020 WS020/21045KT
     FM221400 19012KT P6SM VCSH SCT025 OVC035
     FM221900 19010KT P6SM OVC035=



000
FTUS43 KLSX 212300
TAFCOU
TAF
KCOU 212322Z 2200/2224 14010KT P6SM VCSH OVC025
     FM220400 16010KT P6SM -SHRA OVC015 WS020/21045KT
     FM221400 18012KT P6SM VCSH SCT015 OVC025
     FM221900 19012KT P6SM OVC025=



000
FTUS43 KLSX 212300
TAFSTL
TAF
KSTL 212322Z 2200/2306 15010KT P6SM OVC028
     FM220200 17008KT P6SM VCSH OVC025
     FM220500 18010KT P6SM OVC020 WS020/21045KT
     FM221400 19012KT P6SM VCSH SCT025 OVC035
     FM221900 19010KT P6SM OVC035=



000
FTUS43 KLSX 212300
TAFSUS
TAF
KSUS 212322Z 2200/2224 15010KT P6SM OVC028
     FM220200 18008KT P6SM VCSH OVC025
     FM220500 19010KT P6SM OVC020 WS020/21045KT
     FM221400 19012KT P6SM VCSH SCT025 OVC035
     FM221900 19008KT P6SM OVC035=



000
FTUS43 KLSX 212300
TAFUIN
TAF
KUIN 212322Z 2200/2224 17011KT P6SM VCSH OVC025
     FM220700 18010KT P6SM SCT015 OVC025 WS020/21045KT
     FM221400 20009KT P6SM OVC020=



000
FTUS43 KLSX 212100 AAA
TAFSUS
TAF AMD
KSUS 212116Z 2121/2218 12012KT P6SM BKN040 BKN250
     FM220000 16010KT P6SM OVC028
     FM220200 18008KT P6SM VCSH OVC025
     FM220500 19010KT P6SM OVC020 WS020/21045KT
     FM221400 19012KT P6SM VCSH SCT025 OVC035=



000
FTUS43 KLSX 212100 CCA
TAFSTL
TAF COR
KSTL 212113Z 2121/2224 12012KT P6SM BKN040 BKN250
     FM220000 15010KT P6SM OVC028
     FM220200 17008KT P6SM VCSH OVC025
     FM220500 18010KT P6SM OVC020 WS020/21045KT
     FM221400 19012KT P6SM VCSH SCT025 OVC035=



000
FTUS43 KLSX 212100 AAA
TAFUIN
TAF AMD
KUIN 212111Z 2121/2218 14010KT P6SM OVC028
     FM220000 18011KT P6SM VCSH OVC025
     FM220700 18010KT P6SM SCT015 OVC025 WS020/21045KT
     FM221400 20009KT P6SM OVC020=



000
FTUS43 KLSX 212100 AAA
TAFSTL
TAF AMD
KSTL 212109Z 2121/2224 12012KT P6SM BKN030 BKN250
     FM220000 15010KT P6SM OVC028
     FM220200 17008KT P6SM VCSH OVC025
     FM220500 18010KT P6SM OVC020 WS020/21045KT
     FM221400 19012KT P6SM VCSH SCT025 OVC035=



000
FTUS43 KLSX 211700 CCA
TAFCOU
TAF COR
KCOU 211747Z 2118/2218 13012KT P6SM OVC030
     FM212200 15010KT P6SM VCSH OVC025
     FM220400 16010KT P6SM -SHRA OVC015 WS020/21045KT
     FM221400 18012KT P6SM VCSH SCT015 OVC025=



000
FTUS43 KLSX 211700
TAFCOU
TAF
KCOU 211736Z 2118/2218 13012KT P6SM OVC035
     FM212200 15010KT P6SM VCSH OVC025
     FM220400 16010KT P6SM -SHRA OVC015 WS020/21045KT
     FM221400 18012KT P6SM VCSH SCT015 OVC025=



000
FTUS43 KLSX 211700
TAFUIN
TAF
KUIN 211736Z 2118/2218 14012KT P6SM SKC
     FM212100 15012KT P6SM OVC040
     FM220100 18011KT P6SM VCSH OVC025
     FM220700 18010KT P6SM SCT015 OVC025 WS020/21045KT
     FM221400 20009KT P6SM OVC020=



000
FTUS43 KLSX 211700
TAFSUS
TAF
KSUS 211736Z 2118/2218 12009KT P6SM SKC
     FM212000 13011KT P6SM OVC040
     FM220000 16010KT P6SM VCSH OVC025
     FM220500 18010KT P6SM OVC020 WS020/21045KT
     FM221400 19012KT P6SM VCSH SCT025 OVC035=



000
FTUS43 KLSX 211700
TAFSTL
TAF
KSTL 211736Z 2118/2224 13010KT P6SM SKC
     FM212000 13011KT P6SM OVC040
     FM220000 16010KT P6SM VCSH OVC025
     FM220500 18010KT P6SM OVC020 WS020/21045KT
     FM221400 19012KT P6SM VCSH SCT025 OVC035=



000
FTUS43 KLSX 211400 AAA
TAFSTL
TAF AMD
KSTL 211457Z 2115/2218 12010KT P6SM SKC
     FM212000 13011KT P6SM OVC040
     FM220000 16010KT P6SM -SHRA OVC025
     FM220500 18011KT P6SM SCT015 OVC040
     FM221400 19013KT 4SM -SHRA SCT025 OVC035=



000
FTUS43 KLSX 211100
TAFSUS
TAF
KSUS 211121Z 2112/2212 00000KT P6SM SKC
     FM211400 12009KT P6SM BKN250
     FM212000 13011KT P6SM OVC040
     FM220000 16010KT P6SM -SHRA OVC025
     FM220500 18011KT P6SM SCT015 OVC040=



000
FTUS43 KLSX 211100
TAFCOU
TAF
KCOU 211121Z 2112/2212 09007KT P6SM SKC
     FM211400 12011KT P6SM BKN250
     FM211800 13012KT P6SM OVC035
     FM212100 14010KT P6SM -SHRA OVC025
     FM220000 15011KT P6SM -SHRA OVC015
     FM220600 18011KT P6SM SCT015 OVC025=



000
FTUS43 KLSX 211100
TAFUIN
TAF
KUIN 211121Z 2112/2212 10007KT P6SM SKC
     FM211500 14010KT P6SM BKN250
     FM212200 14012KT P6SM OVC040
     FM220100 18011KT P6SM -SHRA OVC025
     FM220700 18011KT P6SM SCT015 OVC025=



000
FTUS43 KLSX 211100
TAFSTL
TAF
KSTL 211121Z 2112/2218 10006KT P6SM SKC
     FM211400 12009KT P6SM BKN250
     FM212000 13011KT P6SM OVC040
     FM220000 16010KT P6SM -SHRA OVC025
     FM220500 18011KT P6SM SCT015 OVC040
     FM221400 19013KT 4SM -SHRA SCT025 OVC035=



000
FTUS43 KLSX 210900 AAA
TAFSTL
TAF AMD
KSTL 210908Z 2109/2212 VRB05KT P6SM SKC
     FM211500 12009KT P6SM BKN250
     FM212100 13011KT P6SM OVC040
     FM220000 14010KT P6SM -SHRA OVC025=



000
FTUS43 KLSX 210500
TAFSTL
TAF
KSTL 210529Z 2106/2212 VRB05KT P6SM SKC
     FM211500 12009KT P6SM BKN250
     FM212100 13011KT P6SM OVC040
     FM220000 14010KT P6SM -SHRA OVC025=



000
FTUS43 KLSX 210500
TAFSUS
TAF
KSUS 210529Z 2106/2206 00000KT P6SM SKC
     FM211500 12007KT P6SM BKN250
     FM212100 13008KT P6SM OVC040
     FM220000 14007KT P6SM -SHRA OVC025=



000
FTUS43 KLSX 210500
TAFCOU
TAF
KCOU 210529Z 2106/2206 08005KT P6SM SKC
     FM211500 11011KT P6SM BKN250
     FM211800 13012KT P6SM OVC035
     FM212100 14010KT P6SM -SHRA OVC025
     FM220000 14011KT P6SM -SHRA OVC015=



000
FTUS43 KLSX 210500
TAFUIN
TAF
KUIN 210529Z 2106/2206 06005KT P6SM SKC
     FM211500 14010KT P6SM BKN250
     FM212200 14010KT P6SM OVC040
     FM220100 14011KT P6SM -SHRA OVC020=



000
FTUS43 KLSX 210200 AAA
TAFSTL
TAF AMD
KSTL 210300Z 2103/2206 VRB05KT P6SM SKC
     FM211500 12009KT P6SM BKN250
     FM212100 13011KT P6SM OVC040
     FM220000 13010KT P6SM -SHRA OVC025=



000
FTUS43 KLSX 202300
TAFSTL
TAF
KSTL 202321Z 2100/2206 VRB05KT P6SM SKC
     FM211500 12009KT P6SM BKN250
     FM212100 13011KT P6SM OVC040
     FM220000 13010KT P6SM -SHRA OVC025=



000
FTUS43 KLSX 202300
TAFUIN
TAF
KUIN 202321Z 2100/2124 VRB04KT P6SM SKC
     FM211600 14010KT P6SM BKN250
     FM212100 14010KT P6SM OVC040=



000
FTUS43 KLSX 202300
TAFSUS
TAF
KSUS 202321Z 2100/2124 00000KT P6SM SKC
     FM211500 12007KT P6SM BKN250
     FM212100 13008KT P6SM OVC040=



000
FTUS43 KLSX 202300
TAFCOU
TAF
KCOU 202321Z 2100/2124 VRB04KT P6SM SKC
     FM211500 11010KT P6SM BKN250
     FM211800 12010KT P6SM OVC035
     FM212100 12010KT P6SM -SHRA OVC025=



000
FTUS43 KLSX 202000 AAA
TAFSTL
TAF AMD
KSTL 202050Z 2021/2124 29007KT P6SM SCT090
     FM202300 VRB04KT P6SM SKC
     FM211700 12008KT P6SM BKN030
     FM212200 12010KT P6SM BKN015=



000
FTUS43 KLSX 201700
TAFSTL
TAF
KSTL 201720Z 2018/2124 31006KT P6SM SKC
     FM202300 VRB04KT P6SM SKC
     FM211700 12008KT P6SM BKN030
     FM212200 12010KT P6SM BKN015=



000
FTUS43 KLSX 201700
TAFCOU
TAF
KCOU 201720Z 2018/2118 32006KT P6SM SKC
     FM202300 VRB04KT P6SM SKC
     FM211500 11007KT P6SM BKN030=



000
FTUS43 KLSX 201700
TAFSUS
TAF
KSUS 201720Z 2018/2118 30006KT P6SM SKC
     FM202300 00000KT P6SM SKC
     FM211700 12008KT P6SM BKN030=



000
FTUS43 KLSX 201700
TAFUIN
TAF
KUIN 201720Z 2018/2118 30009KT P6SM SKC
     FM202300 VRB03KT P6SM SKC=



000
FTUS43 KLSX 201400 AAA
TAFSTL
TAF AMD
KSTL 201452Z 2015/2118 27007KT P6SM SCT035
     FM202300 VRB03KT P6SM SKC
     FM211500 12009KT P6SM BKN040=



000
FTUS43 KLSX 201100
TAFSTL
TAF
KSTL 201120Z 2012/2118 27007KT P6SM SCT035
     FM202300 VRB03KT P6SM SKC
     FM211500 12009KT P6SM BKN040=



000
FTUS43 KLSX 201100
TAFUIN
TAF
KUIN 201120Z 2012/2112 27007KT P6SM BKN030
     FM201600 28009KT P6SM SCT040
     FM202300 VRB03KT P6SM SKC=



000
FTUS43 KLSX 201100
TAFSUS
TAF
KSUS 201120Z 2012/2112 27006KT P6SM SCT035
     FM202300 00000KT P6SM SKC=



000
FTUS43 KLSX 201100
TAFCOU
TAF
KCOU 201120Z 2012/2112 27006KT P6SM SKC
     FM202200 VRB04KT P6SM SKC
     FM210600 10007KT P6SM SKC=



000
FTUS43 KLSX 200900 AAA
TAFSTL
TAF AMD
KSTL 200918Z 2009/2112 27005KT P6SM SCT035
     FM201500 28008KT P6SM SCT030
     FM210000 VRB04KT P6SM SKC=



    US Dept of Commerce
    National Oceanic and Atmospheric Administration
    National Weather Service
    1325 East West Highway
    Silver Spring, MD 20910
    Page Author: NWS Internet Services Team
Disclaimer
Information Quality
Credits
Glossary
Privacy Policy
Freedom of Information Act (FOIA)
About Us
Career Opportunities